createdAt,value
2022-08-30T00:00:14.468Z,29.10
2022-08-30T00:00:44.588Z,29.11
2022-08-30T00:01:14.587Z,29.13
2022-08-30T00:01:44.706Z,29.13
2022-08-30T00:02:14.896Z,29.21
2022-08-30T00:02:45.029Z,29.13
2022-08-30T00:03:15.283Z,29.16
2022-08-30T00:03:45.223Z,29.17
2022-08-30T00:04:15.059Z,29.18
2022-08-30T00:04:45.057Z,29.10
2022-08-30T00:05:15.174Z,29.19
2022-08-30T00:05:45.171Z,29.14
2022-08-30T00:06:15.167Z,29.11
2022-08-30T00:06:45.289Z,29.18
2022-08-30T00:07:15.287Z,29.11
2022-08-30T00:07:45.284Z,29.08
2022-08-30T00:08:15.319Z,29.16
2022-08-30T00:08:45.351Z,29.11
2022-08-30T00:09:15.388Z,29.13
2022-08-30T00:09:45.430Z,29.08
2022-08-30T00:10:15.464Z,29.10
2022-08-30T00:10:45.499Z,29.14
2022-08-30T00:11:15.535Z,29.08
2022-08-30T00:11:45.566Z,29.11
2022-08-30T00:12:15.620Z,29.11
2022-08-30T00:12:45.658Z,29.11
2022-08-30T00:13:15.861Z,29.16
2022-08-30T00:13:45.748Z,29.13
2022-08-30T00:14:15.780Z,29.11
2022-08-30T00:14:45.818Z,29.13
2022-08-30T00:15:15.853Z,29.11
2022-08-30T00:15:45.952Z,29.16
2022-08-30T00:16:16.028Z,29.13
2022-08-30T00:16:45.993Z,29.11
2022-08-30T00:17:16.045Z,29.13
2022-08-30T00:17:46.078Z,29.15
2022-08-30T00:18:16.119Z,29.14
2022-08-30T00:18:46.154Z,29.14
2022-08-30T00:19:16.251Z,29.16
2022-08-30T00:19:46.290Z,29.14
2022-08-30T00:20:16.302Z,29.17
2022-08-30T00:20:46.334Z,29.12
2022-08-30T00:21:16.369Z,29.19
2022-08-30T00:21:46.408Z,29.14
2022-08-30T00:22:16.454Z,29.16
2022-08-30T00:22:46.490Z,29.19
2022-08-30T00:23:16.691Z,29.13
2022-08-30T00:23:46.526Z,29.11
2022-08-30T00:24:16.564Z,29.12
2022-08-30T00:24:46.601Z,29.17
2022-08-30T00:25:16.633Z,29.14
2022-08-30T00:25:46.661Z,29.16
2022-08-30T00:26:16.698Z,29.13
2022-08-30T00:26:46.727Z,29.13
2022-08-30T00:27:16.785Z,29.19
2022-08-30T00:27:46.820Z,29.05
2022-08-30T00:28:16.853Z,29.15
2022-08-30T00:28:46.888Z,29.11
2022-08-30T00:29:16.928Z,29.17
2022-08-30T00:29:46.964Z,29.12
2022-08-30T00:30:17.002Z,29.14
2022-08-30T00:30:47.082Z,29.21
2022-08-30T00:31:17.176Z,29.16
2022-08-30T00:31:47.209Z,29.14
2022-08-30T00:32:17.259Z,29.12
2022-08-30T00:32:47.298Z,29.14
2022-08-30T00:33:17.552Z,29.16
2022-08-30T00:33:47.348Z,29.17
2022-08-30T00:34:17.385Z,29.12
2022-08-30T00:34:47.422Z,29.12
2022-08-30T00:35:17.459Z,29.17
2022-08-30T00:35:47.494Z,29.14
2022-08-30T00:36:17.532Z,29.16
2022-08-30T00:36:47.590Z,29.19
2022-08-30T00:37:17.620Z,29.15
2022-08-30T00:37:47.662Z,29.12
2022-08-30T00:38:17.695Z,29.14
2022-08-30T00:38:47.728Z,29.08
2022-08-30T00:39:17.772Z,29.12
2022-08-30T00:39:47.800Z,29.16
2022-08-30T00:40:17.947Z,29.22
2022-08-30T00:40:47.909Z,29.16
2022-08-30T00:41:17.937Z,29.22
2022-08-30T00:41:47.997Z,29.14
2022-08-30T00:42:18.033Z,29.12
2022-08-30T00:42:50.684Z,29.14
2022-08-30T00:43:19.155Z,29.19
2022-08-30T00:43:48.205Z,29.19
2022-08-30T00:44:18.236Z,29.17
2022-08-30T00:44:48.268Z,29.20
2022-08-30T00:45:18.305Z,29.19
2022-08-30T00:45:48.395Z,29.14
2022-08-30T00:46:18.562Z,29.12
2022-08-30T00:46:48.527Z,29.16
2022-08-30T00:47:18.569Z,29.15
2022-08-30T00:47:48.606Z,29.20
2022-08-30T00:48:18.643Z,29.15
2022-08-30T00:48:48.684Z,29.15
2022-08-30T00:49:18.727Z,29.15
2022-08-30T00:49:48.761Z,29.17
2022-08-30T00:50:18.794Z,29.14
2022-08-30T00:50:48.835Z,29.14
2022-08-30T00:51:18.869Z,29.15
2022-08-30T00:51:48.924Z,29.25
2022-08-30T00:52:18.955Z,29.19
2022-08-30T00:52:48.990Z,29.12
2022-08-30T00:53:19.217Z,29.14
2022-08-30T00:53:49.036Z,29.14
2022-08-30T00:54:19.063Z,29.20
2022-08-30T00:54:49.098Z,29.20
2022-08-30T00:55:19.136Z,29.14
2022-08-30T00:55:49.171Z,29.18
2022-08-30T00:56:19.197Z,29.18
2022-08-30T00:56:49.256Z,29.12
2022-08-30T00:57:19.286Z,29.20
2022-08-30T00:57:49.317Z,29.17
2022-08-30T00:58:19.312Z,29.17
2022-08-30T00:58:49.436Z,29.15
2022-08-30T00:59:19.443Z,29.14
2022-08-30T00:59:49.443Z,29.20
2022-08-30T01:00:19.446Z,29.12
2022-08-30T01:00:49.443Z,29.14
2022-08-30T01:01:19.532Z,29.12
2022-08-30T01:01:49.594Z,29.19
2022-08-30T01:02:19.655Z,29.20
2022-08-30T01:02:49.673Z,29.14
2022-08-30T01:03:19.635Z,29.22
2022-08-30T01:03:49.758Z,29.18
2022-08-30T01:04:19.756Z,29.15
2022-08-30T01:04:49.880Z,29.15
2022-08-30T01:05:19.872Z,29.15
2022-08-30T01:05:49.869Z,29.17
2022-08-30T01:06:19.990Z,29.12
2022-08-30T01:06:50.126Z,29.17
2022-08-30T01:07:20.129Z,29.19
2022-08-30T01:07:50.142Z,29.17
2022-08-30T01:08:20.175Z,29.21
2022-08-30T01:08:50.213Z,29.18
2022-08-30T01:09:20.250Z,29.17
2022-08-30T01:09:50.297Z,29.20
2022-08-30T01:10:20.328Z,29.21
2022-08-30T01:10:50.364Z,29.18
2022-08-30T01:11:20.398Z,29.23
2022-08-30T01:11:50.463Z,29.15
2022-08-30T01:12:20.500Z,29.14
2022-08-30T01:12:50.533Z,29.20
2022-08-30T01:13:20.566Z,29.15
2022-08-30T01:13:50.669Z,29.23
2022-08-30T01:14:20.709Z,29.20
2022-08-30T01:14:50.745Z,29.23
2022-08-30T01:15:20.846Z,29.21
2022-08-30T01:15:51.009Z,29.14
2022-08-30T01:16:21.077Z,29.18
2022-08-30T01:16:51.169Z,29.24
2022-08-30T01:17:22.002Z,29.18
2022-08-30T01:17:51.318Z,29.18
2022-08-30T01:18:22.271Z,29.18
2022-08-30T01:18:51.381Z,29.18
2022-08-30T01:19:21.413Z,29.24
2022-08-30T01:19:51.452Z,29.17
2022-08-30T01:20:21.487Z,29.15
2022-08-30T01:20:51.525Z,29.20
2022-08-30T01:21:21.556Z,29.21
2022-08-30T01:21:51.620Z,29.20
2022-08-30T01:22:21.659Z,29.20
2022-08-30T01:22:51.690Z,29.18
2022-08-30T01:23:21.729Z,29.15
2022-08-30T01:23:51.780Z,29.17
2022-08-30T01:24:21.831Z,29.17
2022-08-30T01:24:51.863Z,29.18
2022-08-30T01:25:21.898Z,29.20
2022-08-30T01:25:51.935Z,29.18
2022-08-30T01:26:22.285Z,29.17
2022-08-30T01:26:51.995Z,29.20
2022-08-30T01:27:22.026Z,29.15
2022-08-30T01:27:52.064Z,29.24
2022-08-30T01:28:22.103Z,29.20
2022-08-30T01:28:52.136Z,29.21
2022-08-30T01:29:22.172Z,29.21
2022-08-30T01:29:52.211Z,29.17
2022-08-30T01:30:22.247Z,29.20
2022-08-30T01:30:52.342Z,29.17
2022-08-30T01:31:22.367Z,29.18
2022-08-30T01:31:52.332Z,29.20
2022-08-30T01:32:25.104Z,29.20
2022-08-30T01:32:52.386Z,29.24
2022-08-30T01:33:22.424Z,29.24
2022-08-30T01:33:52.468Z,29.21
2022-08-30T01:34:22.506Z,29.20
2022-08-30T01:34:52.532Z,29.17
2022-08-30T01:35:22.563Z,29.24
2022-08-30T01:35:52.597Z,29.18
2022-08-30T01:36:22.634Z,29.21
2022-08-30T01:36:52.689Z,29.21
2022-08-30T01:37:22.721Z,29.18
2022-08-30T01:37:52.752Z,29.23
2022-08-30T01:38:22.793Z,29.26
2022-08-30T01:38:52.827Z,29.24
2022-08-30T01:39:22.854Z,29.21
2022-08-30T01:39:52.898Z,29.18
2022-08-30T01:40:22.971Z,29.20
2022-08-30T01:40:52.976Z,29.18
2022-08-30T01:41:23.015Z,29.20
2022-08-30T01:41:53.076Z,29.20
2022-08-30T01:42:23.110Z,29.21
2022-08-30T01:42:53.141Z,29.23
2022-08-30T01:43:23.175Z,29.23
2022-08-30T01:43:53.207Z,29.21
2022-08-30T01:44:23.236Z,29.21
2022-08-30T01:44:53.278Z,29.15
2022-08-30T01:45:23.312Z,29.24
2022-08-30T01:45:53.400Z,29.21
2022-08-30T01:46:23.459Z,29.23
2022-08-30T01:46:53.433Z,29.23
2022-08-30T01:47:23.464Z,29.24
2022-08-30T01:47:53.497Z,29.20
2022-08-30T01:48:26.579Z,29.20
2022-08-30T01:48:54.325Z,29.24
2022-08-30T01:49:27.755Z,29.23
2022-08-30T01:49:53.626Z,29.20
2022-08-30T01:50:23.657Z,29.30
2022-08-30T01:50:53.696Z,29.26
2022-08-30T01:51:23.736Z,29.18
2022-08-30T01:52:00.481Z,29.26
2022-08-30T01:52:23.844Z,29.23
2022-08-30T01:52:53.882Z,29.21
2022-08-30T01:53:23.919Z,29.24
2022-08-30T01:53:53.956Z,29.18
2022-08-30T01:54:23.994Z,29.24
2022-08-30T01:54:54.045Z,29.28
2022-08-30T01:55:24.092Z,29.24
2022-08-30T01:55:54.125Z,29.18
2022-08-30T01:56:24.156Z,29.21
2022-08-30T01:56:54.211Z,29.23
2022-08-30T01:57:24.252Z,29.16
2022-08-30T01:57:54.273Z,29.28
2022-08-30T01:58:24.270Z,29.24
2022-08-30T01:58:54.267Z,29.26
2022-08-30T01:59:24.391Z,29.24
2022-08-30T01:59:54.508Z,29.27
2022-08-30T02:00:24.509Z,29.29
2022-08-30T02:00:54.586Z,29.26
2022-08-30T02:01:24.591Z,29.29
2022-08-30T02:01:54.607Z,29.24
2022-08-30T02:02:24.606Z,29.22
2022-08-30T02:02:54.603Z,29.24
2022-08-30T02:03:24.686Z,29.24
2022-08-30T02:03:54.721Z,29.23
2022-08-30T02:04:24.754Z,29.18
2022-08-30T02:04:54.749Z,29.23
2022-08-30T02:05:24.749Z,29.25
2022-08-30T02:05:54.745Z,29.23
2022-08-30T02:06:24.735Z,29.22
2022-08-30T02:06:54.748Z,29.24
2022-08-30T02:07:24.739Z,29.25
2022-08-30T02:07:54.751Z,29.26
2022-08-30T02:08:24.790Z,29.24
2022-08-30T02:08:54.786Z,29.27
2022-08-30T02:09:24.823Z,29.24
2022-08-30T02:09:54.859Z,29.22
2022-08-30T02:10:24.893Z,29.24
2022-08-30T02:10:54.928Z,29.22
2022-08-30T02:11:24.931Z,29.27
2022-08-30T02:11:55.035Z,29.25
2022-08-30T02:12:25.005Z,29.21
2022-08-30T02:12:55.039Z,29.25
2022-08-30T02:13:25.074Z,29.25
2022-08-30T02:13:55.108Z,29.24
2022-08-30T02:14:25.146Z,29.28
2022-08-30T02:14:55.175Z,29.24
2022-08-30T02:15:25.210Z,29.18
2022-08-30T02:15:55.246Z,29.19
2022-08-30T02:16:25.340Z,29.28
2022-08-30T02:16:55.432Z,29.27
2022-08-30T02:17:25.450Z,29.24
2022-08-30T02:17:55.483Z,29.25
2022-08-30T02:18:25.520Z,29.32
2022-08-30T02:18:55.563Z,29.27
2022-08-30T02:19:25.596Z,29.24
2022-08-30T02:19:55.629Z,29.22
2022-08-30T02:20:25.664Z,29.23
2022-08-30T02:20:55.695Z,29.23
2022-08-30T02:21:25.728Z,29.25
2022-08-30T02:21:55.778Z,29.22
2022-08-30T02:22:25.825Z,29.25
2022-08-30T02:22:58.534Z,29.24
2022-08-30T02:23:25.893Z,29.25
2022-08-30T02:23:55.925Z,29.17
2022-08-30T02:24:25.960Z,29.30
2022-08-30T02:24:55.995Z,29.28
2022-08-30T02:25:26.033Z,29.25
2022-08-30T02:25:56.063Z,29.27
2022-08-30T02:26:26.098Z,29.28
2022-08-30T02:26:56.135Z,29.25
2022-08-30T02:27:26.174Z,29.25
2022-08-30T02:27:56.212Z,29.22
2022-08-30T02:28:26.245Z,29.30
2022-08-30T02:28:56.273Z,29.30
2022-08-30T02:29:26.375Z,29.25
2022-08-30T02:29:56.403Z,29.30
2022-08-30T02:30:26.467Z,29.25
2022-08-30T02:30:56.537Z,29.30
2022-08-30T02:31:26.510Z,29.23
2022-08-30T02:31:56.541Z,29.27
2022-08-30T02:32:26.588Z,29.25
2022-08-30T02:32:56.622Z,29.25
2022-08-30T02:33:26.661Z,29.32
2022-08-30T02:33:56.696Z,29.27
2022-08-30T02:34:26.728Z,29.28
2022-08-30T02:34:56.756Z,29.30
2022-08-30T02:35:26.794Z,29.28
2022-08-30T02:35:56.831Z,29.27
2022-08-30T02:36:26.861Z,29.28
2022-08-30T02:36:56.897Z,29.28
2022-08-30T02:37:26.935Z,29.27
2022-08-30T02:37:56.975Z,29.22
2022-08-30T02:38:27.010Z,29.28
2022-08-30T02:38:57.052Z,29.30
2022-08-30T02:39:27.072Z,29.33
2022-08-30T02:39:57.231Z,29.28
2022-08-30T02:40:27.221Z,29.28
2022-08-30T02:40:57.255Z,29.31
2022-08-30T02:41:27.290Z,29.28
2022-08-30T02:41:57.327Z,29.30
2022-08-30T02:42:27.367Z,29.26
2022-08-30T02:42:57.475Z,29.26
2022-08-30T02:43:27.513Z,29.30
2022-08-30T02:43:57.544Z,29.30
2022-08-30T02:44:27.570Z,29.36
2022-08-30T02:44:57.661Z,29.33
2022-08-30T02:45:27.690Z,29.30
2022-08-30T02:45:57.793Z,29.26
2022-08-30T02:46:27.875Z,29.28
2022-08-30T02:46:57.878Z,29.30
2022-08-30T02:47:27.915Z,29.28
2022-08-30T02:47:57.950Z,29.28
2022-08-30T02:48:27.988Z,29.30
2022-08-30T02:49:00.320Z,29.28
2022-08-30T02:49:35.191Z,29.28
2022-08-30T02:49:58.088Z,29.28
2022-08-30T02:50:28.161Z,29.28
2022-08-30T02:50:58.201Z,29.30
2022-08-30T02:51:28.232Z,29.28
2022-08-30T02:51:58.267Z,29.31
2022-08-30T02:52:28.299Z,29.31
2022-08-30T02:52:58.336Z,29.26
2022-08-30T02:53:28.372Z,29.28
2022-08-30T02:53:58.405Z,29.28
2022-08-30T02:54:28.450Z,29.25
2022-08-30T02:54:58.473Z,29.30
2022-08-30T02:55:28.505Z,29.30
2022-08-30T02:55:58.547Z,29.30
2022-08-30T02:56:28.546Z,29.33
2022-08-30T02:56:58.584Z,29.30
2022-08-30T02:57:28.621Z,29.31
2022-08-30T02:57:58.635Z,29.28
2022-08-30T02:58:28.625Z,29.25
2022-08-30T02:58:58.658Z,29.29
2022-08-30T02:59:28.780Z,29.26
2022-08-30T02:59:58.774Z,29.34
2022-08-30T03:00:28.776Z,29.28
2022-08-30T03:00:58.957Z,29.26
2022-08-30T03:01:29.477Z,29.29
2022-08-30T03:01:59.025Z,29.31
2022-08-30T03:02:29.029Z,29.25
2022-08-30T03:02:59.146Z,29.29
2022-08-30T03:03:29.206Z,29.31
2022-08-30T03:03:59.285Z,29.29
2022-08-30T03:04:29.296Z,29.31
2022-08-30T03:04:59.297Z,29.33
2022-08-30T03:05:29.416Z,29.30
2022-08-30T03:05:59.535Z,29.32
2022-08-30T03:06:29.536Z,29.31
2022-08-30T03:06:59.533Z,29.36
2022-08-30T03:07:29.530Z,29.29
2022-08-30T03:07:59.547Z,29.31
2022-08-30T03:08:29.580Z,29.26
2022-08-30T03:08:59.611Z,29.25
2022-08-30T03:09:29.644Z,29.26
2022-08-30T03:09:59.677Z,29.32
2022-08-30T03:10:29.712Z,29.32
2022-08-30T03:10:59.760Z,29.25
2022-08-30T03:11:29.797Z,29.32
2022-08-30T03:11:59.831Z,29.33
2022-08-30T03:12:29.869Z,29.36
2022-08-30T03:12:59.906Z,29.33
2022-08-30T03:13:29.942Z,29.29
2022-08-30T03:13:59.972Z,29.29
2022-08-30T03:14:30.013Z,29.31
2022-08-30T03:15:00.051Z,29.33
2022-08-30T03:15:30.083Z,29.31
2022-08-30T03:16:00.122Z,29.29
2022-08-30T03:16:30.227Z,29.33
2022-08-30T03:17:00.263Z,29.34
2022-08-30T03:17:30.299Z,29.33
2022-08-30T03:18:00.333Z,29.30
2022-08-30T03:18:30.375Z,29.36
2022-08-30T03:19:00.407Z,29.35
2022-08-30T03:19:30.443Z,29.34
2022-08-30T03:20:00.477Z,29.33
2022-08-30T03:20:30.514Z,29.34
2022-08-30T03:21:00.541Z,29.36
2022-08-30T03:21:30.572Z,29.33
2022-08-30T03:22:00.609Z,29.36
2022-08-30T03:22:30.647Z,29.31
2022-08-30T03:23:00.672Z,29.34
2022-08-30T03:23:30.718Z,29.29
2022-08-30T03:24:00.750Z,29.37
2022-08-30T03:24:30.780Z,29.29
2022-08-30T03:25:00.867Z,29.32
2022-08-30T03:25:30.901Z,29.36
2022-08-30T03:26:00.933Z,29.34
2022-08-30T03:26:30.972Z,29.33
2022-08-30T03:27:01.012Z,29.31
2022-08-30T03:27:31.055Z,29.39
2022-08-30T03:28:01.083Z,29.29
2022-08-30T03:28:31.121Z,29.32
2022-08-30T03:29:01.155Z,29.36
2022-08-30T03:29:31.192Z,29.40
2022-08-30T03:30:01.227Z,29.35
2022-08-30T03:30:31.261Z,29.34
2022-08-30T03:31:01.303Z,29.36
2022-08-30T03:31:31.377Z,29.29
2022-08-30T03:32:01.443Z,29.37
2022-08-30T03:32:31.458Z,29.38
2022-08-30T03:33:01.501Z,29.37
2022-08-30T03:33:31.596Z,29.37
2022-08-30T03:34:01.610Z,29.41
2022-08-30T03:34:31.648Z,29.43
2022-08-30T03:35:01.688Z,29.39
2022-08-30T03:35:33.260Z,29.44
2022-08-30T03:36:01.799Z,29.44
2022-08-30T03:36:31.855Z,29.46
2022-08-30T03:37:01.887Z,29.47
2022-08-30T03:37:31.923Z,29.49
2022-08-30T03:38:01.965Z,29.47
2022-08-30T03:38:32.000Z,29.50
2022-08-30T03:39:02.043Z,29.52
2022-08-30T03:39:32.080Z,29.46
2022-08-30T03:40:02.199Z,29.53
2022-08-30T03:40:32.251Z,29.50
2022-08-30T03:41:02.222Z,29.52
2022-08-30T03:41:32.250Z,29.50
2022-08-30T03:42:02.560Z,29.53
2022-08-30T03:42:32.298Z,29.49
2022-08-30T03:43:02.325Z,29.49
2022-08-30T03:43:32.365Z,29.53
2022-08-30T03:44:02.405Z,29.58
2022-08-30T03:44:32.497Z,29.47
2022-08-30T03:45:02.528Z,29.56
2022-08-30T03:45:32.591Z,29.55
2022-08-30T03:46:02.694Z,29.55
2022-08-30T03:46:36.834Z,29.59
2022-08-30T03:47:02.744Z,29.52
2022-08-30T03:47:32.783Z,29.67
2022-08-30T03:48:02.823Z,29.99
2022-08-30T03:48:32.858Z,30.16
2022-08-30T03:49:02.891Z,30.17
2022-08-30T03:49:32.935Z,30.35
2022-08-30T03:50:03.000Z,30.43
2022-08-30T03:50:33.031Z,30.49
2022-08-30T03:51:03.065Z,30.53
2022-08-30T03:51:33.173Z,30.64
2022-08-30T03:52:03.212Z,30.65
2022-08-30T03:52:33.241Z,30.73
2022-08-30T03:53:03.277Z,30.86
2022-08-30T03:53:33.314Z,30.92
2022-08-30T03:54:03.341Z,30.98
2022-08-30T03:54:33.377Z,31.02
2022-08-30T03:55:03.412Z,31.05
2022-08-30T03:55:33.454Z,31.12
2022-08-30T03:56:03.495Z,31.19
2022-08-30T03:56:33.537Z,31.17
2022-08-30T03:57:03.571Z,31.17
2022-08-30T03:57:33.610Z,31.35
2022-08-30T03:58:03.664Z,31.36
2022-08-30T03:58:33.656Z,31.38
2022-08-30T03:59:03.657Z,31.38
2022-08-30T03:59:33.658Z,31.48
2022-08-30T04:00:03.777Z,32.76
2022-08-30T04:00:33.896Z,35.27
2022-08-30T04:01:03.983Z,37.23
2022-08-30T04:01:34.005Z,36.78
2022-08-30T04:02:04.086Z,37.48
2022-08-30T04:02:34.114Z,36.93
2022-08-30T04:03:04.105Z,37.11
2022-08-30T04:03:34.223Z,36.09
2022-08-30T04:04:04.224Z,36.13
2022-08-30T04:04:34.220Z,35.46
2022-08-30T04:05:04.340Z,34.25
2022-08-30T04:05:34.331Z,33.79
2022-08-30T04:06:04.329Z,33.66
2022-08-30T04:06:34.451Z,33.65
2022-08-30T04:07:04.455Z,33.49
2022-08-30T04:07:34.448Z,33.29
2022-08-30T04:08:04.472Z,33.15
2022-08-30T04:08:34.546Z,33.07
2022-08-30T04:09:04.636Z,32.96
2022-08-30T04:09:34.669Z,32.91
2022-08-30T04:10:04.706Z,32.84
2022-08-30T04:10:34.800Z,32.82
2022-08-30T04:11:05.121Z,32.70
2022-08-30T04:11:34.911Z,32.65
2022-08-30T04:12:04.967Z,32.67
2022-08-30T04:12:34.983Z,32.56
2022-08-30T04:13:05.011Z,32.53
2022-08-30T04:13:35.045Z,32.56
2022-08-30T04:14:05.083Z,32.56
2022-08-30T04:14:35.113Z,32.71
2022-08-30T04:15:05.151Z,32.65
2022-08-30T04:15:35.186Z,32.65
2022-08-30T04:16:05.281Z,32.68
2022-08-30T04:16:35.367Z,32.61
2022-08-30T04:17:05.382Z,32.59
2022-08-30T04:17:35.421Z,32.58
2022-08-30T04:18:05.452Z,32.53
2022-08-30T04:18:35.491Z,32.57
2022-08-30T04:19:05.518Z,32.64
2022-08-30T04:19:35.548Z,32.58
2022-08-30T04:20:05.581Z,32.59
2022-08-30T04:20:35.621Z,32.62
2022-08-30T04:21:05.652Z,32.62
2022-08-30T04:21:42.703Z,32.60
2022-08-30T04:22:05.733Z,32.63
2022-08-30T04:22:35.766Z,32.66
2022-08-30T04:23:05.794Z,32.69
2022-08-30T04:23:35.827Z,32.69
2022-08-30T04:24:05.860Z,32.74
2022-08-30T04:24:35.890Z,32.72
2022-08-30T04:25:05.947Z,32.73
2022-08-30T04:25:35.977Z,32.79
2022-08-30T04:26:06.008Z,32.77
2022-08-30T04:26:36.041Z,32.82
2022-08-30T04:27:06.077Z,32.82
2022-08-30T04:27:36.112Z,32.79
2022-08-30T04:28:06.141Z,32.82
2022-08-30T04:28:36.176Z,32.91
2022-08-30T04:29:06.218Z,33.11
2022-08-30T04:29:36.250Z,33.25
2022-08-30T04:30:06.279Z,33.27
2022-08-30T04:30:36.310Z,33.36
2022-08-30T04:31:06.344Z,33.27
2022-08-30T04:31:36.453Z,33.39
2022-08-30T04:32:06.505Z,33.59
2022-08-30T04:32:36.562Z,33.60
2022-08-30T04:33:06.593Z,33.53
2022-08-30T04:33:36.623Z,33.50
2022-08-30T04:34:06.679Z,33.35
2022-08-30T04:34:36.714Z,33.33
2022-08-30T04:35:06.743Z,33.39
2022-08-30T04:35:36.778Z,33.33
2022-08-30T04:36:06.813Z,33.39
2022-08-30T04:36:36.842Z,33.27
2022-08-30T04:37:06.898Z,33.21
2022-08-30T04:37:36.948Z,33.13
2022-08-30T04:38:06.983Z,33.04
2022-08-30T04:38:37.011Z,33.25
2022-08-30T04:39:07.047Z,33.13
2022-08-30T04:39:37.082Z,33.05
2022-08-30T04:40:07.187Z,33.04
2022-08-30T04:40:37.135Z,33.02
2022-08-30T04:41:07.190Z,33.05
2022-08-30T04:41:37.217Z,32.99
2022-08-30T04:42:07.247Z,33.01
2022-08-30T04:42:37.282Z,32.91
2022-08-30T04:43:07.326Z,33.02
2022-08-30T04:43:37.365Z,32.95
2022-08-30T04:44:07.399Z,32.92
2022-08-30T04:44:37.471Z,33.02
2022-08-30T04:45:07.500Z,33.03
2022-08-30T04:45:37.540Z,33.01
2022-08-30T04:46:07.631Z,33.06
2022-08-30T04:46:37.588Z,33.06
2022-08-30T04:47:07.644Z,33.13
2022-08-30T04:47:37.686Z,33.09
2022-08-30T04:48:07.714Z,33.07
2022-08-30T04:48:37.746Z,33.04
2022-08-30T04:49:07.777Z,33.13
2022-08-30T04:49:37.810Z,33.19
2022-08-30T04:50:07.844Z,33.18
2022-08-30T04:50:37.872Z,33.24
2022-08-30T04:51:07.903Z,33.31
2022-08-30T04:51:37.945Z,33.27
2022-08-30T04:52:07.999Z,33.13
2022-08-30T04:52:38.028Z,33.04
2022-08-30T04:53:08.069Z,33.06
2022-08-30T04:53:38.098Z,33.14
2022-08-30T04:54:08.482Z,33.24
2022-08-30T04:54:38.145Z,33.32
2022-08-30T04:55:08.179Z,33.42
2022-08-30T04:55:38.209Z,33.55
2022-08-30T04:56:08.239Z,33.51
2022-08-30T04:56:38.276Z,33.44
2022-08-30T04:57:08.319Z,33.38
2022-08-30T04:57:38.352Z,33.35
2022-08-30T04:58:08.348Z,33.45
2022-08-30T04:58:38.344Z,33.33
2022-08-30T04:59:08.342Z,33.40
2022-08-30T04:59:38.470Z,33.29
2022-08-30T05:00:08.468Z,33.31
2022-08-30T05:00:38.561Z,33.36
2022-08-30T05:01:08.578Z,33.30
2022-08-30T05:01:45.498Z,33.24
2022-08-30T05:02:11.134Z,33.28
2022-08-30T05:02:38.810Z,33.30
2022-08-30T05:03:08.914Z,33.24
2022-08-30T05:03:38.907Z,33.32
2022-08-30T05:04:08.910Z,33.13
2022-08-30T05:04:38.900Z,33.01
2022-08-30T05:05:09.019Z,32.97
2022-08-30T05:05:39.027Z,32.98
2022-08-30T05:06:09.026Z,32.95
2022-08-30T05:06:39.021Z,33.01
2022-08-30T05:07:09.041Z,32.89
2022-08-30T05:07:39.031Z,32.97
2022-08-30T05:08:09.061Z,32.97
2022-08-30T05:08:39.099Z,32.88
2022-08-30T05:09:09.154Z,32.88
2022-08-30T05:09:39.193Z,32.92
2022-08-30T05:10:11.487Z,32.88
2022-08-30T05:10:39.229Z,32.88
2022-08-30T05:11:09.260Z,32.85
2022-08-30T05:11:39.291Z,32.83
2022-08-30T05:12:09.345Z,32.88
2022-08-30T05:12:39.375Z,32.90
2022-08-30T05:13:09.496Z,32.89
2022-08-30T05:13:39.409Z,32.86
2022-08-30T05:14:09.440Z,32.86
2022-08-30T05:14:39.474Z,32.83
2022-08-30T05:15:09.513Z,32.80
2022-08-30T05:15:39.546Z,32.79
2022-08-30T05:16:09.670Z,32.85
2022-08-30T05:16:39.702Z,32.84
2022-08-30T05:17:09.625Z,32.79
2022-08-30T05:17:39.653Z,32.77
2022-08-30T05:18:11.346Z,32.76
2022-08-30T05:18:39.765Z,32.76
2022-08-30T05:19:09.795Z,32.72
2022-08-30T05:19:39.829Z,32.73
2022-08-30T05:20:09.867Z,32.67
2022-08-30T05:20:39.894Z,32.67
2022-08-30T05:21:09.926Z,32.68
2022-08-30T05:21:39.984Z,32.60
2022-08-30T05:22:10.029Z,32.59
2022-08-30T05:22:40.059Z,32.59
2022-08-30T05:23:10.175Z,32.59
2022-08-30T05:23:40.206Z,32.57
2022-08-30T05:24:10.238Z,32.53
2022-08-30T05:24:40.270Z,32.57
2022-08-30T05:25:10.300Z,32.48
2022-08-30T05:25:40.347Z,32.56
2022-08-30T05:26:10.382Z,32.51
2022-08-30T05:26:40.491Z,32.47
2022-08-30T05:27:10.433Z,32.45
2022-08-30T05:27:40.463Z,32.51
2022-08-30T05:28:10.549Z,32.51
2022-08-30T05:28:40.584Z,32.50
2022-08-30T05:29:10.622Z,32.44
2022-08-30T05:29:40.657Z,32.45
2022-08-30T05:30:10.688Z,32.42
2022-08-30T05:30:40.721Z,32.39
2022-08-30T05:31:14.056Z,32.41
2022-08-30T05:31:40.864Z,32.35
2022-08-30T05:32:10.910Z,32.44
2022-08-30T05:32:40.951Z,32.45
2022-08-30T05:33:10.986Z,32.41
2022-08-30T05:33:41.013Z,32.38
2022-08-30T05:34:11.048Z,32.38
2022-08-30T05:34:41.080Z,32.37
2022-08-30T05:35:11.114Z,32.35
2022-08-30T05:35:41.154Z,32.35
2022-08-30T05:36:11.211Z,32.48
2022-08-30T05:36:41.252Z,32.43
2022-08-30T05:37:11.287Z,32.32
2022-08-30T05:37:41.403Z,32.37
2022-08-30T05:38:11.480Z,32.40
2022-08-30T05:38:41.506Z,32.39
2022-08-30T05:39:11.636Z,32.37
2022-08-30T05:39:46.950Z,32.45
2022-08-30T05:40:11.770Z,32.48
2022-08-30T05:40:41.866Z,32.44
2022-08-30T05:41:11.863Z,32.47
2022-08-30T05:41:41.898Z,32.50
2022-08-30T05:42:11.933Z,32.49
2022-08-30T05:42:41.970Z,32.60
2022-08-30T05:43:12.009Z,32.59
2022-08-30T05:43:42.039Z,32.57
2022-08-30T05:44:12.075Z,32.63
2022-08-30T05:44:42.146Z,32.59
2022-08-30T05:45:12.118Z,32.65
2022-08-30T05:45:42.149Z,32.57
2022-08-30T05:46:12.323Z,32.62
2022-08-30T05:46:42.277Z,32.59
2022-08-30T05:47:12.306Z,32.60
2022-08-30T05:47:42.346Z,32.68
2022-08-30T05:48:13.057Z,32.65
2022-08-30T05:48:42.399Z,32.66
2022-08-30T05:49:12.428Z,32.66
2022-08-30T05:49:42.470Z,32.62
2022-08-30T05:50:12.503Z,32.60
2022-08-30T05:50:42.547Z,32.59
2022-08-30T05:51:12.603Z,32.53
2022-08-30T05:51:43.267Z,32.61
2022-08-30T05:52:12.632Z,32.65
2022-08-30T05:52:42.670Z,32.70
2022-08-30T05:53:12.704Z,32.67
2022-08-30T05:53:42.734Z,32.68
2022-08-30T05:54:12.771Z,32.64
2022-08-30T05:54:42.800Z,32.72
2022-08-30T05:55:12.826Z,32.64
2022-08-30T05:55:42.940Z,32.58
2022-08-30T05:56:12.991Z,32.61
2022-08-30T05:56:43.038Z,32.56
2022-08-30T05:57:13.074Z,32.59
2022-08-30T05:57:43.112Z,32.57
2022-08-30T05:58:13.135Z,32.49
2022-08-30T05:58:43.128Z,32.52
2022-08-30T05:59:13.123Z,32.55
2022-08-30T05:59:43.247Z,32.53
2022-08-30T06:00:13.273Z,32.61
2022-08-30T06:00:43.250Z,32.62
2022-08-30T06:01:13.380Z,32.64
2022-08-30T06:01:43.456Z,32.62
2022-08-30T06:02:13.458Z,32.61
2022-08-30T06:02:43.599Z,32.72
2022-08-30T06:03:13.524Z,32.69
2022-08-30T06:03:43.515Z,32.58
2022-08-30T06:04:13.513Z,32.64
2022-08-30T06:04:43.511Z,32.67
2022-08-30T06:05:14.269Z,32.65
2022-08-30T06:05:43.558Z,32.54
2022-08-30T06:06:13.578Z,32.58
2022-08-30T06:06:43.596Z,32.55
2022-08-30T06:07:15.817Z,32.57
2022-08-30T06:07:43.707Z,32.48
2022-08-30T06:08:13.613Z,32.48
2022-08-30T06:08:43.640Z,32.48
2022-08-30T06:09:13.680Z,32.41
2022-08-30T06:09:43.717Z,32.40
2022-08-30T06:10:13.747Z,32.44
2022-08-30T06:10:43.803Z,32.38
2022-08-30T06:11:13.928Z,32.29
2022-08-30T06:11:43.934Z,32.24
2022-08-30T06:12:13.969Z,32.23
2022-08-30T06:12:44.012Z,32.14
2022-08-30T06:13:14.035Z,32.14
2022-08-30T06:13:44.073Z,32.12
2022-08-30T06:14:14.106Z,32.11
2022-08-30T06:14:44.137Z,32.03
2022-08-30T06:15:14.178Z,31.98
2022-08-30T06:15:44.250Z,32.03
2022-08-30T06:16:14.318Z,32.01
2022-08-30T06:16:44.336Z,32.03
2022-08-30T06:17:14.371Z,32.01
2022-08-30T06:17:44.399Z,32.01
2022-08-30T06:18:14.436Z,32.05
2022-08-30T06:18:44.475Z,32.10
2022-08-30T06:19:14.508Z,32.03
2022-08-30T06:19:44.545Z,31.98
2022-08-30T06:20:14.580Z,32.02
2022-08-30T06:20:44.624Z,32.17
2022-08-30T06:21:15.291Z,32.05
2022-08-30T06:21:44.677Z,32.04
2022-08-30T06:22:14.705Z,32.07
2022-08-30T06:22:44.743Z,32.05
2022-08-30T06:23:14.772Z,32.17
2022-08-30T06:23:44.814Z,32.12
2022-08-30T06:24:14.854Z,32.20
2022-08-30T06:24:58.397Z,32.11
2022-08-30T06:25:15.006Z,32.13
2022-08-30T06:25:45.057Z,32.20
2022-08-30T06:26:15.082Z,32.02
2022-08-30T06:26:45.128Z,32.13